Airport View

Enter AWOS ICAO identifier for current METAR.

ex. KFNL

25 Sep 2020 13:56

Phone: 412-442-2213

Other Area AWOS: KAGC - KPIT - KBTP - KPJC

TAF AMD KAGC 251239Z 2513/2612 14004KT 4SM BR SCT250 FM251330 14004KT P6SM SCT250 FM260600 VRB02KT P6SM SCT050